createdAt,value
2019-05-01T00:02:37.979Z,34.23
2019-05-01T00:05:27.172Z,28.60
2019-05-01T00:07:56.788Z,30.80
2019-05-01T00:10:26.265Z,40.30
2019-05-01T00:12:56.566Z,39.90
2019-05-01T00:15:28.532Z,31.00
2019-05-01T00:17:57.816Z,36.07
2019-05-01T00:20:26.878Z,37.00
2019-05-01T00:22:55.962Z,33.23
2019-05-01T00:25:24.929Z,37.60
2019-05-01T00:27:53.910Z,32.70
2019-05-01T00:30:30.141Z,38.90
2019-05-01T00:32:54.601Z,31.10
2019-05-01T00:35:23.562Z,31.73
2019-05-01T00:37:53.002Z,31.07
2019-05-01T00:40:22.212Z,40.83
2019-05-01T00:42:51.609Z,31.93
2019-05-01T00:45:21.671Z,35.70
2019-05-01T00:47:51.203Z,32.93
2019-05-01T00:50:20.231Z,39.63
2019-05-01T00:52:59.276Z,39.90
2019-05-01T00:56:05.566Z,34.80
2019-05-01T00:58:53.068Z,43.37
2019-05-01T01:01:49.677Z,33.53
2019-05-01T01:04:19.896Z,41.97
2019-05-01T01:06:49.262Z,31.07
2019-05-01T01:09:18.615Z,36.63
2019-05-01T01:11:47.961Z,35.03
2019-05-01T01:14:16.949Z,31.83
2019-05-01T01:16:46.975Z,41.90
2019-05-01T01:19:16.282Z,31.43
2019-05-01T01:21:45.378Z,37.07
2019-05-01T01:24:15.614Z,40.30
2019-05-01T01:26:45.130Z,32.33
2019-05-01T01:29:14.512Z,31.80
2019-05-01T01:31:43.858Z,32.53
2019-05-01T01:34:12.887Z,35.40
2019-05-01T01:36:42.182Z,43.63
2019-05-01T01:39:11.310Z,37.70
2019-05-01T01:41:40.769Z,35.83
2019-05-01T01:44:28.983Z,36.37
2019-05-01T01:46:58.101Z,37.93
2019-05-01T01:49:27.727Z,34.10
2019-05-01T01:51:57.095Z,34.53
2019-05-01T01:54:26.152Z,41.10
2019-05-01T01:56:56.511Z,41.73
2019-05-01T01:59:26.728Z,29.80
2019-05-01T02:02:27.038Z,46.40
2019-05-01T02:05:09.688Z,34.40
2019-05-01T02:07:38.753Z,27.47
2019-05-01T02:10:08.274Z,40.20
2019-05-01T02:12:38.695Z,38.33
2019-05-01T02:15:07.817Z,36.57
2019-05-01T02:17:36.886Z,38.53
2019-05-01T02:20:06.851Z,39.60
2019-05-01T02:22:35.826Z,32.97
2019-05-01T02:25:07.038Z,33.50
2019-05-01T02:27:42.218Z,39.60
2019-05-01T02:30:12.768Z,37.43
2019-05-01T02:32:44.799Z,41.20
2019-05-01T02:35:13.738Z,38.47
2019-05-01T02:37:44.188Z,42.60
2019-05-01T02:40:41.361Z,35.50
2019-05-01T02:43:12.253Z,42.90
2019-05-01T02:45:43.330Z,37.77
2019-05-01T02:48:13.775Z,35.07
2019-05-01T02:50:44.218Z,36.30
2019-05-01T02:53:14.115Z,37.57
2019-05-01T02:55:49.132Z,34.83
2019-05-01T02:58:18.283Z,39.70
2019-05-01T03:00:47.302Z,45.10
2019-05-01T03:03:16.890Z,42.53
2019-05-01T03:05:46.734Z,36.90
2019-05-01T03:08:15.713Z,41.00
2019-05-01T03:10:44.766Z,40.37
2019-05-01T03:13:15.329Z,34.07
2019-05-01T03:15:44.947Z,35.80
2019-05-01T03:18:28.530Z,39.07
2019-05-01T03:21:19.844Z,32.87
2019-05-01T03:23:59.738Z,38.10
2019-05-01T03:26:29.126Z,33.83
2019-05-01T03:28:58.129Z,38.87
2019-05-01T03:31:27.484Z,33.03
2019-05-01T03:33:57.180Z,35.33
2019-05-01T03:36:26.985Z,32.83
2019-05-01T03:38:55.952Z,38.20
2019-05-01T03:41:24.966Z,35.43
2019-05-01T03:43:53.907Z,31.27
2019-05-01T03:46:22.955Z,33.17
2019-05-01T03:48:52.002Z,39.70
2019-05-01T03:51:21.255Z,28.50
2019-05-01T03:53:50.563Z,36.20
2019-05-01T03:56:19.730Z,38.13
2019-05-01T03:58:48.979Z,33.23
2019-05-01T04:01:30.429Z,32.70
2019-05-01T04:04:02.952Z,31.10
2019-05-01T04:06:32.469Z,33.60
2019-05-01T04:09:01.441Z,41.70
2019-05-01T04:11:30.914Z,30.70
2019-05-01T04:13:59.878Z,32.27
2019-05-01T04:16:29.406Z,33.53
2019-05-01T04:18:58.838Z,30.70
2019-05-01T04:21:31.879Z,33.80
2019-05-01T04:24:00.822Z,39.03
2019-05-01T04:26:29.786Z,33.17
2019-05-01T04:29:17.886Z,30.23
2019-05-01T04:31:51.946Z,29.93
2019-05-01T04:34:26.531Z,31.90
2019-05-01T04:36:57.196Z,37.90
2019-05-01T04:39:26.293Z,31.20
2019-05-01T04:41:55.328Z,32.43
2019-05-01T04:44:24.444Z,31.37
2019-05-01T04:46:53.746Z,31.30
2019-05-01T04:49:23.248Z,23.83
2019-05-01T04:51:52.932Z,23.13
2019-05-01T04:54:22.405Z,28.83
2019-05-01T04:56:51.459Z,26.33
2019-05-01T04:59:20.381Z,28.77
2019-05-01T05:01:57.001Z,27.70
2019-05-01T05:04:26.491Z,26.17
2019-05-01T05:06:55.757Z,27.20
2019-05-01T05:09:59.277Z,24.90
2019-05-01T05:12:47.352Z,33.50
2019-05-01T05:15:44.915Z,26.67
2019-05-01T05:18:14.657Z,29.70
2019-05-01T05:20:44.093Z,24.73
2019-05-01T05:23:13.450Z,25.47
2019-05-01T05:25:43.173Z,25.20
2019-05-01T05:28:12.732Z,27.10
2019-05-01T05:30:43.254Z,28.40
2019-05-01T05:33:18.656Z,26.73
2019-05-01T05:35:44.163Z,25.47
2019-05-01T05:38:21.538Z,24.33
2019-05-01T05:40:51.213Z,28.53
2019-05-01T05:43:21.051Z,23.30
2019-05-01T05:45:51.111Z,26.97
2019-05-01T05:48:20.381Z,23.87
2019-05-01T05:51:09.453Z,23.10
2019-05-01T05:53:41.215Z,24.33
2019-05-01T05:56:14.190Z,22.27
2019-05-01T05:58:48.202Z,24.13
2019-05-01T06:01:32.073Z,34.43
2019-05-01T06:04:19.911Z,23.70
2019-05-01T06:07:09.174Z,27.77
2019-05-01T06:09:58.641Z,29.57
2019-05-01T06:12:37.270Z,25.10
2019-05-01T06:15:16.786Z,38.57
2019-05-01T06:18:04.093Z,28.00
2019-05-01T06:21:02.282Z,28.00
2019-05-01T06:23:52.629Z,27.10
2019-05-01T06:26:32.190Z,33.87
2019-05-01T06:29:02.713Z,30.20
2019-05-01T06:31:32.192Z,27.83
2019-05-01T06:34:01.881Z,26.93
2019-05-01T06:36:31.426Z,29.97
2019-05-01T06:39:00.847Z,25.57
2019-05-01T06:41:42.145Z,29.67
2019-05-01T06:44:20.278Z,36.97
2019-05-01T06:47:09.094Z,29.57
2019-05-01T06:49:53.933Z,28.10
2019-05-01T06:52:24.955Z,31.83
2019-05-01T06:54:56.737Z,27.17
2019-05-01T06:57:26.971Z,26.07
2019-05-01T06:59:57.894Z,25.97
2019-05-01T07:02:29.918Z,26.67
2019-05-01T07:04:59.838Z,30.77
2019-05-01T07:07:29.094Z,35.70
2019-05-01T07:09:58.657Z,28.50
2019-05-01T07:12:28.697Z,23.40
2019-05-01T07:14:59.577Z,28.00
2019-05-01T07:17:28.606Z,25.47
2019-05-01T07:20:16.713Z,26.73
2019-05-01T07:22:44.351Z,26.80
2019-05-01T07:25:13.723Z,27.03
2019-05-01T07:27:42.648Z,34.20
2019-05-01T07:30:20.949Z,21.83
2019-05-01T07:32:50.360Z,25.10
2019-05-01T07:35:19.798Z,22.03
2019-05-01T07:37:48.959Z,23.60
2019-05-01T07:40:29.017Z,25.20
2019-05-01T07:42:55.980Z,20.70
2019-05-01T07:45:46.837Z,18.53
2019-05-01T07:48:17.277Z,27.60
2019-05-01T07:50:46.521Z,25.20
2019-05-01T07:53:15.893Z,23.23
2019-05-01T07:55:48.582Z,27.23
2019-05-01T07:58:18.163Z,23.20
2019-05-01T08:01:13.053Z,23.30
2019-05-01T08:03:43.945Z,24.53
2019-05-01T08:06:16.198Z,19.43
2019-05-01T08:08:45.408Z,24.07
2019-05-01T08:11:14.662Z,25.70
2019-05-01T08:13:43.978Z,21.50
2019-05-01T08:16:12.924Z,26.17
2019-05-01T08:18:52.970Z,21.60
2019-05-01T08:21:39.858Z,27.37
2019-05-01T08:24:08.914Z,26.90
2019-05-01T08:26:39.542Z,17.43
2019-05-01T08:29:42.079Z,22.33
2019-05-01T08:32:21.434Z,26.20
2019-05-01T08:34:50.829Z,22.57
2019-05-01T08:37:22.497Z,20.07
2019-05-01T08:39:52.397Z,21.83
2019-05-01T08:42:21.618Z,22.00
2019-05-01T08:45:09.956Z,20.93
2019-05-01T08:47:41.787Z,29.00
2019-05-01T08:50:13.713Z,40.70
2019-05-01T08:52:47.476Z,21.77
2019-05-01T08:55:13.673Z,22.70
2019-05-01T08:57:42.622Z,25.30
2019-05-01T09:00:11.773Z,25.67
2019-05-01T09:02:44.690Z,29.47
2019-05-01T09:05:28.393Z,28.00
2019-05-01T09:07:46.422Z,33.57
2019-05-01T09:10:21.141Z,18.87
2019-05-01T09:12:48.365Z,24.20
2019-05-01T09:15:17.613Z,24.77
2019-05-01T09:17:46.595Z,23.93
2019-05-01T09:20:16.767Z,27.47
2019-05-01T09:22:46.350Z,23.00
2019-05-01T09:25:17.754Z,23.40
2019-05-01T09:28:06.501Z,22.93
2019-05-01T09:30:42.458Z,18.77
2019-05-01T09:33:12.131Z,17.20
2019-05-01T09:35:45.253Z,16.80
2019-05-01T09:38:12.874Z,17.73
2019-05-01T09:40:43.359Z,12.80
2019-05-01T09:43:12.369Z,14.20
2019-05-01T09:45:41.317Z,17.37
2019-05-01T09:48:11.392Z,22.13
2019-05-01T09:50:44.983Z,14.87
2019-05-01T09:53:21.702Z,13.27
2019-05-01T09:55:55.596Z,19.97
2019-05-01T09:58:26.093Z,20.83
2019-05-01T10:00:57.734Z,18.53
2019-05-01T10:03:26.662Z,25.33
2019-05-01T10:05:59.479Z,13.93
2019-05-01T10:08:29.298Z,14.23
2019-05-01T10:10:59.867Z,14.73
2019-05-01T10:13:29.335Z,14.07
2019-05-01T10:15:58.935Z,15.00
2019-05-01T10:18:27.964Z,15.13
2019-05-01T10:20:57.672Z,13.70
2019-05-01T10:23:27.514Z,18.07
2019-05-01T10:25:58.805Z,15.63
2019-05-01T10:28:45.104Z,16.63
2019-05-01T10:31:46.318Z,20.67
2019-05-01T10:34:26.022Z,20.47
2019-05-01T10:36:55.902Z,20.83
2019-05-01T10:39:25.264Z,19.03
2019-05-01T10:41:54.970Z,25.63
2019-05-01T10:44:24.424Z,19.27
2019-05-01T10:46:53.474Z,15.00
2019-05-01T10:49:22.823Z,16.90
2019-05-01T10:51:51.757Z,19.30
2019-05-01T10:54:20.737Z,22.73
2019-05-01T10:56:49.797Z,19.70
2019-05-01T10:59:19.353Z,22.10
2019-05-01T11:01:54.619Z,16.87
2019-05-01T11:04:24.035Z,22.30
2019-05-01T11:06:53.396Z,15.63
2019-05-01T11:09:23.005Z,18.73
2019-05-01T11:11:52.258Z,16.30
2019-05-01T11:14:22.010Z,19.70
2019-05-01T11:16:50.923Z,19.70
2019-05-01T11:19:19.883Z,20.37
2019-05-01T11:21:48.838Z,14.33
2019-05-01T11:24:18.197Z,16.47
2019-05-01T11:26:48.041Z,17.53
2019-05-01T11:29:16.989Z,20.90
2019-05-01T11:32:05.042Z,15.67
2019-05-01T11:34:53.267Z,24.67
2019-05-01T11:37:45.769Z,26.63
2019-05-01T11:40:28.997Z,13.07
2019-05-01T11:42:57.941Z,20.10
2019-05-01T11:45:27.165Z,16.13
2019-05-01T11:47:56.853Z,17.73
2019-05-01T11:50:26.362Z,16.53
2019-05-01T11:52:56.110Z,16.70
2019-05-01T11:55:25.035Z,23.03
2019-05-01T11:57:54.657Z,13.83
2019-05-01T12:00:24.716Z,23.60
2019-05-01T12:02:54.177Z,13.83
2019-05-01T12:05:23.095Z,13.30
2019-05-01T12:07:52.032Z,13.40
2019-05-01T12:10:21.220Z,13.57
2019-05-01T12:12:50.247Z,18.37
2019-05-01T12:40:41.934Z,14.07
2019-05-01T12:43:12.404Z,13.80
2019-05-01T12:45:51.111Z,17.83
2019-05-01T12:48:21.406Z,21.10
2019-05-01T12:50:51.217Z,18.07
2019-05-01T12:53:30.512Z,21.77
2019-05-01T12:56:15.491Z,15.80
2019-05-01T12:58:45.090Z,13.90
2019-05-01T13:01:15.551Z,22.13
2019-05-01T13:03:44.997Z,24.10
2019-05-01T13:06:15.021Z,12.20
2019-05-01T13:08:44.426Z,17.73
2019-05-01T13:11:14.583Z,15.40
2019-05-01T13:13:44.361Z,16.87
2019-05-01T13:16:14.585Z,16.30
2019-05-01T13:18:44.717Z,19.40
2019-05-01T13:21:14.464Z,13.53
2019-05-01T13:23:43.897Z,15.50
2019-05-01T13:26:29.053Z,15.23
2019-05-01T13:29:19.890Z,12.97
2019-05-01T13:32:05.534Z,12.80
2019-05-01T13:34:35.170Z,21.73
2019-05-01T13:37:04.384Z,11.80
2019-05-01T13:39:33.491Z,20.03
2019-05-01T13:42:03.002Z,17.83
2019-05-01T13:44:32.111Z,17.40
2019-05-01T13:47:01.134Z,17.97
2019-05-01T13:49:30.807Z,20.70
2019-05-01T13:52:00.013Z,14.90
2019-05-01T13:54:29.502Z,23.13
2019-05-01T13:56:58.982Z,23.63
2019-05-01T13:59:28.143Z,25.30
2019-05-01T14:01:57.878Z,16.80
2019-05-01T14:04:28.375Z,27.70
2019-05-01T14:06:57.778Z,13.77
2019-05-01T14:09:30.858Z,14.50
2019-05-01T14:12:01.558Z,24.20
2019-05-01T14:14:30.583Z,16.03
2019-05-01T14:17:00.415Z,22.50
2019-05-01T14:19:30.077Z,16.77
2019-05-01T14:22:21.671Z,17.70
2019-05-01T14:24:55.007Z,14.30
2019-05-01T14:27:26.696Z,17.17
2019-05-01T14:29:56.098Z,15.97
2019-05-01T14:32:25.450Z,21.30
2019-05-01T14:34:54.593Z,20.97
2019-05-01T14:37:29.690Z,14.77
2019-05-01T14:39:55.240Z,18.87
2019-05-01T14:42:27.415Z,22.20
2019-05-01T14:44:56.948Z,18.77
2019-05-01T14:47:26.544Z,16.33
2019-05-01T14:49:55.634Z,18.93
2019-05-01T14:52:24.606Z,16.57
2019-05-01T14:54:54.545Z,17.00
2019-05-01T14:57:24.604Z,24.00
2019-05-01T14:59:54.956Z,17.70
2019-05-01T15:02:25.159Z,22.97
2019-05-01T15:04:55.732Z,18.30
2019-05-01T15:07:25.075Z,20.07
2019-05-01T15:09:55.575Z,22.10
2019-05-01T15:12:24.899Z,21.50
2019-05-01T15:15:21.459Z,19.03
2019-05-01T15:18:18.318Z,19.80
2019-05-01T15:20:47.923Z,14.50
2019-05-01T15:23:18.010Z,16.97
2019-05-01T15:25:48.365Z,22.67
2019-05-01T15:28:19.271Z,17.80
2019-05-01T15:30:49.016Z,20.77
2019-05-01T15:33:18.693Z,21.10
2019-05-01T15:35:47.995Z,22.13
2019-05-01T15:38:18.695Z,19.07
2019-05-01T15:40:55.948Z,17.23
2019-05-01T15:43:30.367Z,16.03
2019-05-01T15:45:59.561Z,21.27
2019-05-01T15:48:28.744Z,18.80
2019-05-01T15:50:57.841Z,16.20
2019-05-01T15:53:27.449Z,17.67
2019-05-01T15:55:57.563Z,13.97
2019-05-01T15:58:26.709Z,18.00
2019-05-01T16:00:56.302Z,17.77
2019-05-01T16:03:26.575Z,16.70
2019-05-01T16:05:56.112Z,22.27
2019-05-01T16:08:25.831Z,17.43
2019-05-01T16:11:09.064Z,19.40
2019-05-01T16:13:39.215Z,17.53
2019-05-01T16:16:09.489Z,19.80
2019-05-01T16:18:39.239Z,20.63
2019-05-01T16:21:09.020Z,18.43
2019-05-01T16:23:39.302Z,20.03
2019-05-01T16:26:09.817Z,26.60
2019-05-01T16:28:40.537Z,16.47
2019-05-01T16:31:09.834Z,15.63
2019-05-01T16:33:39.439Z,16.03
2019-05-01T16:36:09.013Z,19.90
2019-05-01T16:38:55.570Z,15.73
2019-05-01T16:41:25.287Z,23.07
2019-05-01T16:44:03.780Z,24.23
2019-05-01T16:46:33.211Z,20.67
2019-05-01T16:49:02.368Z,18.40
2019-05-01T16:51:31.438Z,17.90
2019-05-01T16:54:01.160Z,19.60
2019-05-01T16:56:33.096Z,22.00
2019-05-01T16:59:02.257Z,17.97
2019-05-01T17:01:56.711Z,28.83
2019-05-01T17:04:37.358Z,19.83
2019-05-01T17:07:31.750Z,18.80
2019-05-01T17:10:23.350Z,19.97
2019-05-01T17:12:54.563Z,12.40
2019-05-01T17:15:31.240Z,21.57
2019-05-01T17:18:00.470Z,19.53
2019-05-01T17:20:30.379Z,22.00
2019-05-01T17:22:59.959Z,19.50
2019-05-01T17:25:29.617Z,17.37
2019-05-01T17:28:03.059Z,16.30
2019-05-01T17:30:59.699Z,41.23
2019-05-01T17:33:30.309Z,24.13
2019-05-01T17:35:59.430Z,21.40
2019-05-01T17:38:29.224Z,17.50
2019-05-01T17:40:58.375Z,15.30
2019-05-01T17:43:28.228Z,17.90
2019-05-01T17:45:58.231Z,17.73
2019-05-01T17:48:28.897Z,31.70
2019-05-01T17:51:01.816Z,22.20
2019-05-01T17:53:31.151Z,22.03
2019-05-01T17:56:01.354Z,18.63
2019-05-01T17:58:30.571Z,19.23
2019-05-01T18:01:27.534Z,20.17
2019-05-01T18:04:21.173Z,16.93
2019-05-01T18:06:52.967Z,19.93
2019-05-01T18:09:22.260Z,16.10
2019-05-01T18:11:53.761Z,16.83
2019-05-01T18:14:23.525Z,18.57
2019-05-01T18:16:53.410Z,22.37
2019-05-01T18:19:22.398Z,16.50
2019-05-01T18:21:59.461Z,20.53
2019-05-01T18:24:46.039Z,22.77
2019-05-01T18:27:54.447Z,19.87
2019-05-01T18:30:23.116Z,21.00
2019-05-01T18:32:52.665Z,19.87
2019-05-01T18:35:22.105Z,19.40
2019-05-01T18:37:56.470Z,26.83
2019-05-01T18:40:47.199Z,17.77
2019-05-01T18:43:16.193Z,19.93
2019-05-01T18:45:46.565Z,21.90
2019-05-01T18:48:16.404Z,21.53
2019-05-01T18:50:49.594Z,19.87
2019-05-01T18:53:17.283Z,25.00
2019-05-01T18:55:46.746Z,31.50
2019-05-01T18:58:17.331Z,23.47
2019-05-01T19:00:47.167Z,30.90
2019-05-01T19:03:16.169Z,30.53
2019-05-01T19:05:46.968Z,24.83
2019-05-01T19:08:15.913Z,30.47
2019-05-01T19:10:45.633Z,25.93
2019-05-01T19:13:15.025Z,33.50
2019-05-01T19:15:45.396Z,36.77
2019-05-01T19:18:14.760Z,36.10
2019-05-01T19:20:43.858Z,30.00
2019-05-01T19:23:13.056Z,35.57
2019-05-01T19:25:42.096Z,31.30
2019-05-01T19:28:12.969Z,41.00
2019-05-01T19:30:41.910Z,30.87
2019-05-01T19:33:11.331Z,48.73
2019-05-01T19:35:40.363Z,38.70
2019-05-01T19:38:10.578Z,29.33
2019-05-01T19:40:39.581Z,24.90
2019-05-01T19:43:08.599Z,30.47
2019-05-01T19:45:37.582Z,29.80
2019-05-01T19:48:06.670Z,33.93
2019-05-01T19:50:39.861Z,30.60
2019-05-01T19:53:10.138Z,36.13
2019-05-01T19:55:39.911Z,28.43
2019-05-01T19:58:08.432Z,30.37
2019-05-01T20:00:57.439Z,34.63
2019-05-01T20:03:30.667Z,35.73
2019-05-01T20:06:03.086Z,36.93
2019-05-01T20:08:28.549Z,49.57
2019-05-01T20:10:57.479Z,42.67
2019-05-01T20:13:26.413Z,34.13
2019-05-01T20:15:56.058Z,39.80
2019-05-01T20:18:24.993Z,38.67
2019-05-01T20:20:54.030Z,33.30
2019-05-01T20:23:26.086Z,36.10
2019-05-01T20:25:55.829Z,39.20
2019-05-01T20:28:26.078Z,39.33
2019-05-01T20:30:55.141Z,38.57
2019-05-01T20:33:24.073Z,45.63
2019-05-01T20:35:53.086Z,29.70
2019-05-01T20:38:22.016Z,51.60
2019-05-01T20:40:51.497Z,36.37
2019-05-01T20:43:21.418Z,33.43
2019-05-01T20:45:51.275Z,35.97
2019-05-01T20:48:23.599Z,41.27
2019-05-01T20:50:51.021Z,36.97
2019-05-01T20:53:20.590Z,31.93
2019-05-01T20:56:14.505Z,36.47
2019-05-01T20:58:43.423Z,32.90
2019-05-01T21:01:14.038Z,41.83
2019-05-01T21:03:52.523Z,41.77
2019-05-01T21:06:29.694Z,29.90
2019-05-01T21:09:20.328Z,39.43
2019-05-01T21:12:04.761Z,35.20
2019-05-01T21:14:23.249Z,32.40
2019-05-01T21:16:52.685Z,37.43
2019-05-01T21:19:23.368Z,41.70
2019-05-01T21:21:53.648Z,27.53
2019-05-01T21:24:24.044Z,67.00
2019-05-01T21:26:53.778Z,35.20
2019-05-01T21:29:24.074Z,34.50
2019-05-01T21:31:54.282Z,29.00
2019-05-01T21:34:24.394Z,44.00
2019-05-01T21:36:54.025Z,24.20
2019-05-01T21:39:25.010Z,22.30
2019-05-01T21:41:54.319Z,29.17
2019-05-01T21:44:23.769Z,34.03
2019-05-01T21:46:53.526Z,31.87
2019-05-01T21:49:23.633Z,40.70
2019-05-01T21:51:53.076Z,34.37
2019-05-01T21:54:22.474Z,27.67
2019-05-01T21:56:51.793Z,40.23
2019-05-01T21:59:20.719Z,40.20
2019-05-01T22:01:49.617Z,24.57
2019-05-01T22:04:18.869Z,28.10
2019-05-01T22:06:51.887Z,28.40
2019-05-01T22:09:21.608Z,23.53
2019-05-01T22:11:50.567Z,29.23
2019-05-01T22:14:47.481Z,27.00
2019-05-01T22:17:27.260Z,37.40
2019-05-01T22:19:56.962Z,23.77
2019-05-01T22:22:54.537Z,22.27
2019-05-01T22:25:29.186Z,25.10
2019-05-01T22:28:06.780Z,27.33
2019-05-01T22:30:47.529Z,26.53
2019-05-01T22:33:16.862Z,19.40
2019-05-01T22:35:49.182Z,36.67
2019-05-01T22:38:18.193Z,18.53
2019-05-01T22:41:05.973Z,16.67
2019-05-01T22:43:26.445Z,27.50
2019-05-01T22:45:56.384Z,18.37
2019-05-01T22:48:26.683Z,17.70
2019-05-01T22:50:59.472Z,15.37
2019-05-01T22:53:28.941Z,18.07
2019-05-01T22:56:02.247Z,16.57
2019-05-01T22:58:29.277Z,18.63
2019-05-01T23:00:59.280Z,15.50
2019-05-01T23:03:40.766Z,25.97
2019-05-01T23:06:07.886Z,14.77
2019-05-01T23:08:37.733Z,16.10
2019-05-01T23:11:19.256Z,17.67
2019-05-01T23:13:37.806Z,15.87
2019-05-01T23:16:07.442Z,14.57
2019-05-01T23:18:36.437Z,12.07
2019-05-01T23:21:09.790Z,17.50
2019-05-01T23:23:36.598Z,15.10
2019-05-01T23:26:06.101Z,16.43
2019-05-01T23:28:39.723Z,13.80
2019-05-01T23:31:05.750Z,10.53
2019-05-01T23:33:35.338Z,12.93
2019-05-01T23:36:04.942Z,11.20
2019-05-01T23:38:33.887Z,14.27
2019-05-01T23:41:02.875Z,13.97
2019-05-01T23:43:32.273Z,11.03
2019-05-01T23:46:01.833Z,16.40
2019-05-01T23:48:30.770Z,16.30
2019-05-01T23:51:00.554Z,11.93
2019-05-01T23:53:29.837Z,11.00
2019-05-01T23:56:00.043Z,18.23
2019-05-01T23:58:29.926Z,17.33
